Aérodrome :
LOGIN :

S'inscrire | Disclaimer

   EN    FR    IT 

 










Légende :    VFR   VFR Marginal   IFR   IFR Intensif   IFR Très Intensif
Visi : 
Plafond : 
>= 8 km
>= 3000ft
5 à 8 km
1000 à 3000 ft
1500m à 5 km
500 à 1000 ft
800 à 1500m
200 à 500 ft
< 800m
< 200 ft
Symboles :   Orages  Brouillard  Fortes neiges  Fortes précipitations  Vent > 20 kt
SIGMETs :   Divers  Orages  Givrage  Turbulence  Onde Orograph.  Cendres Volcan.






- Altitude de l'aérodrome : 1233 ft
- Code IATA : OSD


ESNZ - Östersund

DERNIER METAR :
  • 271120Z 13008KT CAVOK M05/M10 Q0996

METARs EXPIRÉS :
  • 271050Z 16009KT CAVOK M06/M11 Q0996
  • 271020Z 14010KT CAVOK M07/M12 Q0996
  • 270950Z 15009KT CAVOK M08/M12 Q0997
  • 270920Z 17009KT CAVOK M08/M12 Q0997
  • 270850Z 17009KT CAVOK M09/M13 Q0997

TAF TAF ESNZ
Valide du 27 à 12h jusqu'au 27 à 21h UTC


271130Z 2712/2721 16010KT CAVOK



MET'MAP, la Météo Aéronautique d'un coup d'oeil ! - Copyright ORBIFLY Décembre 2007 - Disclaimer

ORBIFLY MET'MAP TEAM :

Programmation & Développement : Alexandra Zaïnal
Sur une idée originale de : Baudouin d'Aumeries
Assistance à la programmation : Marc-Olivier Méhu
Soutien technique & logistique : Manuel Goepfert

Contact : metmap@orbifly.com




SOURCES & CREDITS :

   NOAA